Terminal Aerodrome Forecast
Issued by NWS

Current Version | Previous Version | Text Only | Print | Product List | Glossary On
Versions: 1 2 3 4 5 6 7 8 9 10 11 12 13 14 15 16 17 18 19 20 21 22 23 24 25 26 27 28 29 30 31 32 33 34 35 36 37 38 39 40 41 42 43 44 45
000
FTUS43 KMKX 182334
TAFENW
TAF
KENW 182334Z 1900/1924 03013KT P6SM SCT250
     FM190300 06010G18KT P6SM SCT250 WS020/12045KT
     FM190500 09011KT P6SM SCT200
     FM191200 09009KT P6SM BKN100
     FM192000 08010G17KT 5SM -SHRA OVC015
     FM192200 07010G17KT 3SM -SHRA OVC003=

USA.gov is the U.S. government's official web portal to all federal, state and local government web resources and services.